Airfield :
LOGIN :

Register | Disclaimer

   EN    FR    IT 

 










Legend :    VFR   Marginal VFR   IFR   Intensive IFR   Very Intensive IFR
Visi :
Ceiling :
>= 8 km
>= 3000ft
5 to 8 km
1000 to 3000 ft
1500m to 5 km
500 to 1000 ft
800 to 1500m
200 to 500 ft
< 800m
< 200 ft
Symbols :   Thunderstorms  Fog  Heavy snow  Heavy precipitations  Wind > 20 kt
SIGMETs :     Misc.  Thunderstorms  Icing  Turbulence  Mountain Waves  Volcanic Ashes






- Airport Elevation : 885 ft
- IATA code : BAS


LFSB - Bale-Mulhouse

CURRENT METAR :
  • 301530Z 21006KT 170V230 9999 FEW030 SCT050CB BKN130 22/20 Q1011 RETS TEMPO VRB15G30KT 1200 +TSRAGR BKN050CB

EXPIRED METARs :
  • 301500Z 25007KT 220V280 9999 VCTS VCSH FEW016 BKN050CB BKN150 21/19 Q1010 RETSRA TEMPO VRB20G35KT 1200 +TSRAGR
  • 301430Z 07009KT 020V110 9999 TS FEW013 BKN050CB BKN073 22/19 Q1010 RETSRA TEMPO VRB20G35KT 1200 +TSRAGR
  • 301400Z 28017G36KT 240V330 1100 R15/1200D R33/0450D +TSRA FEW026 BKN050CB BKN066 22/18 Q1011 TEMPO VRB20G40KT +TSRAGR
  • 301330Z 07005KT 020V120 9999 TS FEW050 SCT056CB BKN066 29/16 Q1009 TEMPO VRB20G40KT 1200 +TSRAGR BKN050CB
  • 301300Z 08007KT 030V130 9999 FEW050 FEW056CB SCT070 30/17 Q1009 TEMPO VRB20G40KT 1200 +TSRAGR BKN050CB

TAF AMD TAF LFSB
Valid from the 30 at 13:00 until the 01 at 12:00 UTC


301305Z 3013/0112 12005KT 9999 FEW060CB
BECMG 3013/3014 26010KT
TEMPO 3013/3023 VRB20G40KT 2000 TSRA SCT050CB
PROB40
TEMPO 3013/3021 1200 +TSRAGR BKN050CB
BECMG 3023/0101 NSC
TEMPO 3023/0108 4000 RA BKN035
PROB40
TEMPO 3023/0108 BKN013
PROB30
TEMPO 0108/0112 -SHRA FEW030TCU
Met : +33 3 89 90 31 11



MET'MAP, your aeronautical weather chart ! - Copyright ORBIFLY December 2007 - Disclaimer

ORBIFLY MET'MAP TEAM :

Programming & Development : Alexandra Zaïnal
Original concept : Baudouin d'Aumeries
Technical & hardware support : Manuel Goepfert
Assistance : Marc-Olivier Méhu




SOURCES & CREDITS :

   NOAA